Time;durP1;ratioP1;P1;durP2;ratioP2;P2;SDS_P1;SDS_P2;PMS_P1;PMS_P2;Temp;Humidity;BMP_temperature;BMP_pressure;BME280_temperature;BME280_humidity;BME280_pressure;Samples;Min_cycle;Max_cycle;Signal;HPM_P1;HPM_P2
2022/12/16 00:00:25;;;;;;;13.82;7.47;;;-2.10;99.90;;;;;;5047506;28;20033;-70
2022/12/16 00:02:52;;;;;;;10.82;7.03;;;-2.10;99.90;;;;;;5050471;28;20023;-70
2022/12/16 00:05:21;;;;;;;13.38;7.28;;;-2.10;99.90;;;;;;5049294;28;20119;-70
2022/12/16 00:07:47;;;;;;;12.18;6.40;;;-2.00;99.90;;;;;;5050024;28;20025;-71
2022/12/16 00:10:13;;;;;;;12.18;7.45;;;-2.00;99.90;;;;;;5067497;28;20024;-70
2022/12/16 00:12:39;;;;;;;12.60;6.60;;;-2.10;99.90;;;;;;5048990;28;20048;-70
2022/12/16 00:15:05;;;;;;;10.48;6.70;;;-2.00;99.90;;;;;;5048436;28;20052;-70
2022/12/16 00:17:30;;;;;;;18.17;6.90;;;-2.00;99.90;;;;;;5053432;28;20033;-72
2022/12/16 00:19:56;;;;;;;12.80;7.00;;;-1.90;99.90;;;;;;5056149;28;20036;-72
2022/12/16 00:22:22;;;;;;;14.05;7.20;;;-1.90;99.90;;;;;;5056930;28;20039;-71
2022/12/16 00:24:48;;;;;;;11.63;7.03;;;-1.90;99.90;;;;;;5055798;28;20048;-70
2022/12/16 00:27:14;;;;;;;10.93;7.10;;;-2.00;99.90;;;;;;5044488;28;20024;-70
2022/12/16 00:29:39;;;;;;;14.00;7.63;;;-2.10;99.90;;;;;;5050604;28;20037;-69
2022/12/16 00:32:05;;;;;;;15.85;8.48;;;-2.00;99.90;;;;;;5050093;28;20082;-70
2022/12/16 00:34:32;;;;;;;17.50;7.78;;;-2.00;99.90;;;;;;5047838;28;20039;-70
2022/12/16 00:36:57;;;;;;;13.07;7.70;;;-2.10;99.90;;;;;;5055361;28;20024;-70
2022/12/16 00:39:23;;;;;;;12.32;6.78;;;-2.10;99.90;;;;;;5053057;28;20035;-70
2022/12/16 00:41:49;;;;;;;12.32;7.10;;;-2.00;99.90;;;;;;5048206;28;20025;-70
2022/12/16 00:44:15;;;;;;;16.80;8.30;;;-2.10;99.90;;;;;;5048365;28;20099;-69
2022/12/16 00:46:41;;;;;;;15.75;7.60;;;-2.10;99.90;;;;;;5050534;28;20029;-70
2022/12/16 00:49:07;;;;;;;16.17;7.50;;;-2.20;99.90;;;;;;5061739;28;20025;-70
2022/12/16 00:51:33;;;;;;;15.43;7.78;;;-2.10;99.90;;;;;;5049239;28;20017;-69
2022/12/16 00:53:58;;;;;;;11.95;7.00;;;-2.10;99.90;;;;;;5053867;28;20055;-69
2022/12/16 00:56:24;;;;;;;11.93;7.55;;;-2.20;99.90;;;;;;5051995;28;20120;-69
2022/12/16 00:58:50;;;;;;;13.25;6.65;;;-2.10;99.90;;;;;;5048159;28;20033;-69
2022/12/16 01:01:16;;;;;;;14.68;7.68;;;-2.10;99.90;;;;;;5044903;28;20668;-69
2022/12/16 01:03:41;;;;;;;15.23;7.47;;;-2.20;99.90;;;;;;5042122;28;20033;-69
2022/12/16 01:06:10;;;;;;;14.30;7.50;;;-2.20;99.90;;;;;;5052638;28;20116;-70
2022/12/16 01:08:35;;;;;;;16.73;8.57;;;-2.20;99.90;;;;;;5053694;28;20029;-70
2022/12/16 01:11:01;;;;;;;14.32;7.18;;;-2.20;99.90;;;;;;5049907;28;20085;-69
2022/12/16 01:13:27;;;;;;;16.45;7.53;;;-2.20;99.90;;;;;;5047810;28;20036;-70
2022/12/16 01:15:53;;;;;;;14.80;7.00;;;-2.20;99.90;;;;;;5057726;28;20380;-72
2022/12/16 01:18:19;;;;;;;15.55;7.85;;;-2.30;99.90;;;;;;5047945;28;20029;-70
2022/12/16 01:20:45;;;;;;;13.15;6.70;;;-2.30;99.90;;;;;;5050032;28;20064;-71
2022/12/16 01:23:11;;;;;;;12.38;7.40;;;-2.30;99.90;;;;;;5054901;28;20060;-70
2022/12/16 01:25:36;;;;;;;13.65;6.65;;;-2.40;99.90;;;;;;5047781;28;21583;-70
2022/12/16 01:28:02;;;;;;;16.25;7.63;;;-2.30;99.90;;;;;;5049170;28;21644;-71
2022/12/16 01:30:28;;;;;;;15.40;7.63;;;-2.40;99.90;;;;;;5056930;28;20179;-71
2022/12/16 01:32:54;;;;;;;13.82;7.57;;;-2.40;99.90;;;;;;5056212;28;20040;-72
2022/12/16 01:35:20;;;;;;;12.25;7.43;;;-2.40;99.90;;;;;;5055161;28;20033;-70
2022/12/16 01:37:46;;;;;;;12.85;7.32;;;-2.50;99.90;;;;;;5049137;28;20035;-71
2022/12/16 01:40:18;;;;;;;20.42;8.60;;;-2.50;99.90;;;;;;5056934;28;20463;-71
2022/12/16 01:42:44;;;;;;;17.55;7.97;;;-2.50;99.90;;;;;;5058472;28;20030;-70
2022/12/16 01:45:30;;;;;;;12.18;6.68;;;-2.50;99.90;;;;;;5053182;28;20041;-70
2022/12/16 01:48:00;;;;;;;16.40;7.68;;;-2.50;99.90;;;;;;5054801;28;20036;-70
2022/12/16 01:50:28;;;;;;;13.00;7.38;;;-2.60;99.90;;;;;;5062843;28;20068;-70
2022/12/16 01:52:56;;;;;;;14.23;6.88;;;-2.60;99.90;;;;;;5059768;28;20358;-70
2022/12/16 01:55:31;;;;;;;13.18;7.88;;;-2.70;99.90;;;;;;5057378;28;20070;-70
2022/12/16 01:58:26;;;;;;;10.65;7.57;;;-2.70;99.90;;;;;;5049995;28;20036;-70
2022/12/16 02:00:52;;;;;;;11.70;7.53;;;-2.60;99.90;;;;;;5066688;28;20511;-70
2022/12/16 02:03:18;;;;;;;14.07;7.22;;;-2.70;99.90;;;;;;5050989;28;20464;-70
2022/12/16 02:05:46;;;;;;;14.43;7.85;;;-2.80;99.90;;;;;;5049877;28;20254;-70
2022/12/16 02:08:13;;;;;;;17.35;7.50;;;-2.80;99.90;;;;;;5051073;28;20035;-70
2022/12/16 02:10:53;;;;;;;15.10;7.40;;;-2.70;99.90;;;;;;5048651;28;20036;-70
2022/12/16 02:13:46;;;;;;;13.60;6.80;;;-2.80;99.90;;;;;;5051171;28;20025;-70
2022/12/16 02:16:21;;;;;;;13.52;6.72;;;-2.70;99.90;;;;;;5041615;28;20439;-70
2022/12/16 02:19:14;;;;;;;15.80;7.68;;;-2.70;99.90;;;;;;5050399;28;20075;-71
2022/12/16 02:21:47;;;;;;;13.00;6.97;;;-2.70;99.90;;;;;;5047466;28;20461;-69
2022/12/16 02:24:34;;;;;;;15.15;8.48;;;-2.60;99.90;;;;;;5051245;28;20127;-69
2022/12/16 02:27:27;;;;;;;16.05;7.78;;;-2.60;99.90;;;;;;5044821;28;20080;-70
2022/12/16 02:30:04;;;;;;;13.82;7.80;;;-2.50;99.90;;;;;;5052315;28;20044;-70
2022/12/16 02:32:42;;;;;;;17.98;7.10;;;-2.60;99.90;;;;;;5054154;28;20040;-70
2022/12/16 02:35:12;;;;;;;16.08;7.25;;;-2.50;99.90;;;;;;5051969;28;20025;-70
2022/12/16 02:37:45;;;;;;;18.65;7.93;;;-2.50;99.90;;;;;;5049399;28;20033;-70
2022/12/16 02:40:27;;;;;;;12.85;7.35;;;-2.50;99.90;;;;;;5051546;28;20116;-70
2022/12/16 02:43:03;;;;;;;12.40;7.22;;;-2.60;99.90;;;;;;5048707;28;20443;-69
2022/12/16 02:45:31;;;;;;;15.23;7.63;;;-2.50;99.90;;;;;;5048742;28;20097;-69
2022/12/16 02:47:57;;;;;;;19.95;7.75;;;-2.50;99.90;;;;;;5050371;28;20423;-70
2022/12/16 02:50:22;;;;;;;14.00;7.95;;;-2.40;99.90;;;;;;5047526;28;20033;-70
2022/12/16 02:52:50;;;;;;;17.30;8.05;;;-2.50;99.90;;;;;;5049380;28;20029;-70
2022/12/16 02:55:16;;;;;;;15.57;8.15;;;-2.40;99.90;;;;;;5050613;28;20013;-70
2022/12/16 02:57:54;;;;;;;14.70;7.57;;;-2.40;99.90;;;;;;5049252;28;20447;-69
2022/12/16 03:00:22;;;;;;;19.23;8.40;;;-2.40;99.90;;;;;;5050030;28;20013;-70
2022/12/16 03:02:57;;;;;;;17.42;7.95;;;-2.40;99.90;;;;;;5049626;28;20033;-71
2022/12/16 03:05:26;;;;;;;15.27;9.35;;;-2.40;99.90;;;;;;5050918;28;20048;-69
2022/12/16 03:07:55;;;;;;;21.65;7.95;;;-2.50;99.90;;;;;;5051348;28;20435;-70
2022/12/16 03:10:24;;;;;;;14.68;7.28;;;-2.50;99.90;;;;;;5051009;28;20025;-71
2022/12/16 03:12:51;;;;;;;13.02;7.68;;;-2.50;99.90;;;;;;5048152;28;20021;-72
2022/12/16 03:15:21;;;;;;;12.77;8.07;;;-2.50;99.90;;;;;;5051088;28;20025;-70
2022/12/16 03:17:49;;;;;;;14.32;7.70;;;-2.50;99.90;;;;;;5049572;28;20119;-69
2022/12/16 03:20:20;;;;;;;14.05;7.75;;;-2.50;99.90;;;;;;5050738;28;20033;-71
2022/12/16 03:22:50;;;;;;;11.30;7.50;;;-2.60;99.90;;;;;;5042921;28;20331;-70
2022/12/16 03:25:18;;;;;;;15.57;7.97;;;-2.60;99.90;;;;;;5051158;28;20036;-70
2022/12/16 03:28:06;;;;;;;15.05;8.18;;;-2.60;99.90;;;;;;5048624;28;20546;-71
2022/12/16 03:30:36;;;;;;;12.52;7.45;;;-2.70;99.90;;;;;;5047573;28;20071;-70
2022/12/16 03:33:39;;;;;;;15.77;8.38;;;-2.70;99.90;;;;;;5050126;28;20028;-70
2022/12/16 03:36:21;;;;;;;16.33;8.45;;;-2.70;99.90;;;;;;5028541;28;20052;-70
2022/12/16 03:38:47;;;;;;;17.35;8.68;;;-2.70;99.90;;;;;;5040188;28;20713;-71
2022/12/16 03:41:15;;;;;;;18.42;8.23;;;-2.60;99.90;;;;;;5049594;28;20469;-70
2022/12/16 03:43:41;;;;;;;20.33;8.82;;;-2.60;99.90;;;;;;5048386;28;20482;-70
2022/12/16 03:46:08;;;;;;;16.67;7.82;;;-2.70;99.90;;;;;;5047840;28;20063;-70
2022/12/16 03:48:34;;;;;;;13.05;7.88;;;-2.70;99.90;;;;;;5048923;28;20036;-70
2022/12/16 03:51:00;;;;;;;15.65;7.85;;;-2.70;99.90;;;;;;5049810;28;20044;-70
2022/12/16 03:53:26;;;;;;;16.27;8.73;;;-2.70;99.90;;;;;;5047514;28;20060;-70
2022/12/16 03:55:53;;;;;;;16.42;8.80;;;-2.70;99.90;;;;;;5048455;28;20460;-71
2022/12/16 03:58:20;;;;;;;18.50;9.65;;;-2.70;99.90;;;;;;5050431;28;20033;-70
2022/12/16 04:00:46;;;;;;;16.13;8.80;;;-2.60;99.90;;;;;;5047865;28;20037;-70
2022/12/16 04:03:11;;;;;;;18.88;10.00;;;-2.60;99.90;;;;;;5047602;28;20615;-71
2022/12/16 04:05:37;;;;;;;16.30;9.32;;;-2.70;99.90;;;;;;5047969;28;20120;-70
2022/12/16 04:08:03;;;;;;;17.73;9.18;;;-2.60;99.90;;;;;;5050461;28;20025;-69
2022/12/16 04:24:19;;;;;;;17.20;8.38;;;-2.60;99.90;;;;;;5047669;28;20048;-70
2022/12/16 04:29:31;;;;;;;13.20;8.13;;;-2.60;99.90;;;;;;5048399;28;20032;-69
2022/12/16 04:31:58;;;;;;;18.70;9.10;;;-2.70;99.90;;;;;;5047549;28;20024;-70
2022/12/16 04:34:27;;;;;;;18.50;8.98;;;-2.80;99.90;;;;;;5050090;28;20033;-70
